PWSweather.com
Personal Weather Stations
Station Observations
KMNGREYC2
Grey Cloud Island, Grey Cloud Island, MN 55071

Grey Cloud IslandGrey Cloud Island, MN 55071

Lat: 44.799333, Lon: -92.987851

Elevation: 700

Station Type: Davis VP2

www.jagielski.com/weather/conditions.htm

High Low Average
Temperature 60.2°F15.7°C 41.9°F5.5°C 49.8°F9.9°C
Dew Point 46.3°F7.9°C 39.9°F4.4°C 43.2°F6.2°C
Winds 11.0 mph 17.7 kmh Calm Calm 2.0 mph ESE3.2 kmh ESE
Wind Gusts 22.0 mph35.4 kmh -- 8.0 mph12.9 kmh
Humidity 96% 49% 80%
Pressure 30.06 in1017.9 mb 29.64 in1003.7 mb -
Precipitation 0.00 in0.0 mm - -
Hour Temp Dew Point Humidity Winds Wind Gusts Pressure Precip Precip Rate Daily Precip Total
12:00 AM 46.6°F8.1°C 42.6°F5.9°C 86% Calm Calm -- 30.04 in1017.3 mb 0.00 in0.0 mm 0.00 in0.0 mm 0.00 in0.0 mm
12:15 AM 46.0°F7.8°C 42.1°F5.6°C 86% Calm Calm -- 30.05 in1017.6 mb 0.00 in0.0 mm 0.00 in0.0 mm 0.00 in0.0 mm
12:30 AM 45.6°F7.6°C 42.0°F5.6°C 87% Calm Calm -- 30.05 in1017.6 mb 0.00 in0.0 mm 0.00 in0.0 mm 0.00 in0.0 mm
12:45 AM 45.2°F7.3°C 41.9°F5.5°C 88% Calm Calm -- 30.06 in1017.9 mb 0.00 in0.0 mm 0.00 in0.0 mm 0.00 in0.0 mm
01:00 AM 44.9°F7.2°C 41.9°F5.5°C 89% Calm Calm -- 30.06 in1017.9 mb 0.00 in0.0 mm 0.00 in0.0 mm 0.00 in0.0 mm
01:15 AM 44.7°F7.1°C 41.7°F5.4°C 89% Calm Calm -- 30.05 in1017.6 mb 0.00 in0.0 mm 0.00 in0.0 mm 0.00 in0.0 mm
01:30 AM 44.4°F6.9°C 41.7°F5.4°C 90% Calm Calm -- 30.04 in1017.3 mb 0.00 in0.0 mm 0.00 in0.0 mm 0.00 in0.0 mm
01:45 AM 44.1°F6.7°C 41.4°F5.2°C 90% Calm Calm -- 30.05 in1017.6 mb 0.00 in0.0 mm 0.00 in0.0 mm 0.00 in0.0 mm
02:00 AM 44.0°F6.7°C 41.3°F5.2°C 90% Calm Calm -- 30.05 in1017.6 mb 0.00 in0.0 mm 0.00 in0.0 mm 0.00 in0.0 mm
02:15 AM 44.1°F6.7°C 41.7°F5.4°C 91% Calm Calm -- 30.05 in1017.6 mb 0.00 in0.0 mm 0.00 in0.0 mm 0.00 in0.0 mm
02:30 AM 43.7°F6.5°C 41.3°F5.2°C 91% Calm Calm -- 30.05 in1017.6 mb 0.00 in0.0 mm 0.00 in0.0 mm 0.00 in0.0 mm
02:45 AM 43.4°F6.3°C 41.0°F5.0°C 91% Calm Calm -- 30.04 in1017.3 mb 0.00 in0.0 mm 0.00 in0.0 mm 0.00 in0.0 mm
03:00 AM 43.3°F6.3°C 40.9°F4.9°C 91% Calm Calm -- 30.04 in1017.3 mb 0.00 in0.0 mm 0.00 in0.0 mm 0.00 in0.0 mm
03:15 AM 43.1°F6.2°C 40.7°F4.8°C 91% Calm Calm -- 30.02 in1016.6 mb 0.00 in0.0 mm 0.00 in0.0 mm 0.00 in0.0 mm
03:30 AM 42.5°F5.8°C 40.1°F4.5°C 91% Calm Calm -- 30.02 in1016.6 mb 0.00 in0.0 mm 0.00 in0.0 mm 0.00 in0.0 mm
03:45 AM 42.3°F5.7°C 40.2°F4.6°C 92% Calm Calm -- 30.02 in1016.6 mb 0.00 in0.0 mm 0.00 in0.0 mm 0.00 in0.0 mm
04:00 AM 42.0°F5.6°C 39.9°F4.4°C 92% Calm Calm -- 30.02 in1016.6 mb 0.00 in0.0 mm 0.00 in0.0 mm 0.00 in0.0 mm
04:15 AM 42.0°F5.6°C 40.1°F4.5°C 93% Calm Calm -- 30.03 in1016.9 mb 0.00 in0.0 mm 0.00 in0.0 mm 0.00 in0.0 mm
04:30 AM 42.1°F5.6°C 40.2°F4.6°C 93% Calm Calm -- 30.02 in1016.6 mb 0.00 in0.0 mm 0.00 in0.0 mm 0.00 in0.0 mm
04:45 AM 42.0°F5.6°C 40.1°F4.5°C 93% Calm Calm -- 30.01 in1016.3 mb 0.00 in0.0 mm 0.00 in0.0 mm 0.00 in0.0 mm
05:00 AM 41.9°F5.5°C 40.0°F4.4°C 93% Calm Calm 1.0 mph1.6 kmh 30.00 in1015.9 mb 0.00 in0.0 mm 0.00 in0.0 mm 0.00 in0.0 mm
05:15 AM 41.9°F5.5°C 40.0°F4.4°C 93% Calm Calm -- 30.02 in1016.6 mb 0.00 in0.0 mm 0.00 in0.0 mm 0.00 in0.0 mm
05:30 AM 42.2°F5.7°C 40.6°F4.8°C 94% Calm Calm -- 30.02 in1016.6 mb 0.00 in0.0 mm 0.00 in0.0 mm 0.00 in0.0 mm
05:45 AM 42.3°F5.7°C 40.7°F4.8°C 94% Calm Calm -- 30.01 in1016.3 mb 0.00 in0.0 mm 0.00 in0.0 mm 0.00 in0.0 mm
06:00 AM 42.4°F5.8°C 40.8°F4.9°C 94% Calm Calm -- 30.02 in1016.6 mb 0.00 in0.0 mm 0.00 in0.0 mm 0.00 in0.0 mm
06:15 AM 42.4°F5.8°C 40.8°F4.9°C 94% Calm Calm -- 30.01 in1016.3 mb 0.00 in0.0 mm 0.00 in0.0 mm 0.00 in0.0 mm
06:30 AM 42.5°F5.8°C 40.9°F4.9°C 94% Calm Calm -- 30.02 in1016.6 mb 0.00 in0.0 mm 0.00 in0.0 mm 0.00 in0.0 mm
06:45 AM 42.7°F5.9°C 41.1°F5.1°C 94% Calm Calm -- 30.02 in1016.6 mb 0.00 in0.0 mm 0.00 in0.0 mm 0.00 in0.0 mm
07:00 AM 43.1°F6.2°C 41.8°F5.4°C 95% Calm Calm -- 30.02 in1016.6 mb 0.00 in0.0 mm 0.00 in0.0 mm 0.00 in0.0 mm
07:15 AM 43.7°F6.5°C 42.4°F5.8°C 95% Calm Calm -- 30.02 in1016.6 mb 0.00 in0.0 mm 0.00 in0.0 mm 0.00 in0.0 mm
07:30 AM 44.4°F6.9°C 43.3°F6.3°C 96% Calm Calm -- 30.03 in1016.9 mb 0.00 in0.0 mm 0.00 in0.0 mm 0.00 in0.0 mm
07:45 AM 45.2°F7.3°C 44.1°F6.7°C 96% Calm Calm -- 30.04 in1017.3 mb 0.00 in0.0 mm 0.00 in0.0 mm 0.00 in0.0 mm
08:00 AM 46.0°F7.8°C 44.9°F7.2°C 96% Calm Calm 2.0 mph3.2 kmh 30.04 in1017.3 mb 0.00 in0.0 mm 0.00 in0.0 mm 0.00 in0.0 mm
08:15 AM 46.2°F7.9°C 44.9°F7.2°C 95% 2.0 mph SE3.2 kmh SE 3.0 mph4.8 kmh 30.02 in1016.6 mb 0.00 in0.0 mm 0.00 in0.0 mm 0.00 in0.0 mm
08:30 AM 47.0°F8.3°C 44.5°F6.9°C 91% 1.0 mph ESE1.6 kmh ESE 4.0 mph6.4 kmh 30.02 in1016.6 mb 0.00 in0.0 mm 0.00 in0.0 mm 0.00 in0.0 mm
08:45 AM 48.1°F8.9°C 44.1°F6.7°C 86% 5.0 mph E8.0 kmh E 5.0 mph8.0 kmh 30.03 in1016.9 mb 0.00 in0.0 mm 0.00 in0.0 mm 0.00 in0.0 mm
09:00 AM 49.3°F9.6°C 44.1°F6.7°C 82% Calm Calm 5.0 mph8.0 kmh 30.04 in1017.3 mb 0.00 in0.0 mm 0.00 in0.0 mm 0.00 in0.0 mm
09:15 AM 50.3°F10.2°C 44.4°F6.9°C 80% 2.0 mph E3.2 kmh E 8.0 mph12.9 kmh 30.04 in1017.3 mb 0.00 in0.0 mm 0.00 in0.0 mm 0.00 in0.0 mm
09:30 AM 51.3°F10.7°C 44.7°F7.1°C 78% 1.0 mph ESE1.6 kmh ESE 8.0 mph12.9 kmh 30.03 in1016.9 mb 0.00 in0.0 mm 0.00 in0.0 mm 0.00 in0.0 mm
09:45 AM 52.2°F11.2°C 45.2°F7.3°C 77% Calm Calm 7.0 mph11.3 kmh 30.02 in1016.6 mb 0.00 in0.0 mm 0.00 in0.0 mm 0.00 in0.0 mm
10:00 AM 53.2°F11.8°C 44.8°F7.1°C 73% 3.0 mph E4.8 kmh E 7.0 mph11.3 kmh 30.02 in1016.6 mb 0.00 in0.0 mm 0.00 in0.0 mm 0.00 in0.0 mm
10:15 AM 54.1°F12.3°C 44.6°F7.0°C 70% Calm Calm 9.0 mph14.5 kmh 30.02 in1016.6 mb 0.00 in0.0 mm 0.00 in0.0 mm 0.00 in0.0 mm
10:30 AM 54.8°F12.7°C 44.1°F6.7°C 67% 3.0 mph SSE4.8 kmh SSE 10.0 mph16.1 kmh 30.02 in1016.6 mb 0.00 in0.0 mm 0.00 in0.0 mm 0.00 in0.0 mm
10:45 AM 55.9°F13.3°C 44.3°F6.8°C 65% 3.0 mph SE4.8 kmh SE 10.0 mph16.1 kmh 30.02 in1016.6 mb 0.00 in0.0 mm 0.00 in0.0 mm 0.00 in0.0 mm
11:00 AM 56.9°F13.8°C 43.6°F6.4°C 61% 5.0 mph W8.0 kmh W 14.0 mph22.5 kmh 30.00 in1015.9 mb 0.00 in0.0 mm 0.00 in0.0 mm 0.00 in0.0 mm
11:15 AM 58.0°F14.4°C 44.6°F7.0°C 61% 3.0 mph ESE4.8 kmh ESE 13.0 mph20.9 kmh 29.99 in1015.6 mb 0.00 in0.0 mm 0.00 in0.0 mm 0.00 in0.0 mm
11:30 AM 58.9°F14.9°C 42.8°F6.0°C 55% 3.0 mph W4.8 kmh W 18.0 mph29.0 kmh 29.99 in1015.6 mb 0.00 in0.0 mm 0.00 in0.0 mm 0.00 in0.0 mm
11:45 AM 58.8°F14.9°C 43.2°F6.2°C 56% 3.0 mph ENE4.8 kmh ENE 13.0 mph20.9 kmh 29.99 in1015.6 mb 0.00 in0.0 mm 0.00 in0.0 mm 0.00 in0.0 mm
12:00 PM 58.3°F14.6°C 42.7°F5.9°C 56% 4.0 mph N6.4 kmh N 13.0 mph20.9 kmh 29.99 in1015.6 mb 0.00 in0.0 mm 0.00 in0.0 mm 0.00 in0.0 mm
12:15 PM 58.2°F14.6°C 43.1°F6.2°C 57% 5.0 mph E8.0 kmh E 14.0 mph22.5 kmh 29.98 in1015.2 mb 0.00 in0.0 mm 0.00 in0.0 mm 0.00 in0.0 mm
12:30 PM 58.9°F14.9°C 42.3°F5.7°C 54% 3.0 mph NE4.8 kmh NE 14.0 mph22.5 kmh 29.97 in1014.9 mb 0.00 in0.0 mm 0.00 in0.0 mm 0.00 in0.0 mm
12:45 PM 59.0°F15.0°C 41.9°F5.5°C 53% 11.0 mph SE17.7 kmh SE 11.0 mph17.7 kmh 29.97 in1014.9 mb 0.00 in0.0 mm 0.00 in0.0 mm 0.00 in0.0 mm
01:00 PM 58.9°F14.9°C 42.3°F5.7°C 54% 1.0 mph ENE1.6 kmh ENE 14.0 mph22.5 kmh 29.96 in1014.6 mb 0.00 in0.0 mm 0.00 in0.0 mm 0.00 in0.0 mm
01:15 PM 59.5°F15.3°C 42.4°F5.8°C 53% 1.0 mph SE1.6 kmh SE 14.0 mph22.5 kmh 29.96 in1014.6 mb 0.00 in0.0 mm 0.00 in0.0 mm 0.00 in0.0 mm
01:30 PM 60.2°F15.7°C 42.0°F5.6°C 51% Calm Calm 14.0 mph22.5 kmh 29.95 in1014.2 mb 0.00 in0.0 mm 0.00 in0.0 mm 0.00 in0.0 mm
01:45 PM 60.2°F15.7°C 41.5°F5.3°C 50% 4.0 mph ENE6.4 kmh ENE 12.0 mph19.3 kmh 29.95 in1014.2 mb 0.00 in0.0 mm 0.00 in0.0 mm 0.00 in0.0 mm
02:00 PM 59.8°F15.4°C 41.1°F5.1°C 50% 3.0 mph NE4.8 kmh NE 12.0 mph19.3 kmh 29.94 in1013.9 mb 0.00 in0.0 mm 0.00 in0.0 mm 0.00 in0.0 mm
02:15 PM 59.6°F15.3°C 41.5°F5.3°C 51% 8.0 mph E12.9 kmh E 8.0 mph12.9 kmh 29.93 in1013.5 mb 0.00 in0.0 mm 0.00 in0.0 mm 0.00 in0.0 mm
02:30 PM 59.4°F15.2°C 40.3°F4.6°C 49% 2.0 mph NE3.2 kmh NE 11.0 mph17.7 kmh 29.92 in1013.2 mb 0.00 in0.0 mm 0.00 in0.0 mm 0.00 in0.0 mm
02:45 PM 59.4°F15.2°C 40.8°F4.9°C 50% 4.0 mph S6.4 kmh S 22.0 mph35.4 kmh 29.91 in1012.9 mb 0.00 in0.0 mm 0.00 in0.0 mm 0.00 in0.0 mm
03:00 PM 59.4°F15.2°C 40.8°F4.9°C 50% 1.0 mph SE1.6 kmh SE 22.0 mph35.4 kmh 29.90 in1012.5 mb 0.00 in0.0 mm 0.00 in0.0 mm 0.00 in0.0 mm
03:15 PM 59.3°F15.2°C 40.2°F4.6°C 49% Calm Calm 11.0 mph17.7 kmh 29.90 in1012.5 mb 0.00 in0.0 mm 0.00 in0.0 mm 0.00 in0.0 mm
03:30 PM 59.1°F15.1°C 40.5°F4.7°C 50% Calm Calm 11.0 mph17.7 kmh 29.89 in1012.2 mb 0.00 in0.0 mm 0.00 in0.0 mm 0.00 in0.0 mm
03:45 PM 59.0°F15.0°C 40.4°F4.7°C 50% 9.0 mph E14.5 kmh E 11.0 mph17.7 kmh 29.88 in1011.9 mb 0.00 in0.0 mm 0.00 in0.0 mm 0.00 in0.0 mm
04:00 PM 59.0°F15.0°C 40.9°F4.9°C 51% 9.0 mph E14.5 kmh E 15.0 mph24.1 kmh 29.88 in1011.9 mb 0.00 in0.0 mm 0.00 in0.0 mm 0.00 in0.0 mm
04:15 PM 58.7°F14.8°C 40.1°F4.5°C 50% 3.0 mph ENE4.8 kmh ENE 12.0 mph19.3 kmh 29.87 in1011.5 mb 0.00 in0.0 mm 0.00 in0.0 mm 0.00 in0.0 mm
04:30 PM 58.4°F14.7°C 42.3°F5.7°C 55% 6.0 mph SE9.7 kmh SE 16.0 mph25.7 kmh 29.87 in1011.5 mb 0.00 in0.0 mm 0.00 in0.0 mm 0.00 in0.0 mm
04:45 PM 57.4°F14.1°C 43.2°F6.2°C 59% 2.0 mph NE3.2 kmh NE 8.0 mph12.9 kmh 29.86 in1011.2 mb 0.00 in0.0 mm 0.00 in0.0 mm 0.00 in0.0 mm
05:00 PM 56.1°F13.4°C 43.7°F6.5°C 63% 5.0 mph E8.0 kmh E 11.0 mph17.7 kmh 29.86 in1011.2 mb 0.00 in0.0 mm 0.00 in0.0 mm 0.00 in0.0 mm
05:15 PM 54.6°F12.6°C 44.3°F6.8°C 68% 4.0 mph SE6.4 kmh SE 12.0 mph19.3 kmh 29.85 in1010.8 mb 0.00 in0.0 mm 0.00 in0.0 mm 0.00 in0.0 mm
05:30 PM 52.8°F11.6°C 45.5°F7.5°C 76% 2.0 mph E3.2 kmh E 12.0 mph19.3 kmh 29.84 in1010.5 mb 0.01 in0.3 mm 0.04 in1.0 mm 0.01 in0.3 mm
05:45 PM 51.2°F10.7°C 45.6°F7.6°C 81% 3.0 mph E4.8 kmh E 11.0 mph17.7 kmh 29.83 in1010.2 mb 0.02 in0.5 mm 0.04 in1.0 mm 0.02 in0.5 mm
06:00 PM 50.2°F10.1°C 45.6°F7.6°C 84% 6.0 mph E9.7 kmh E 11.0 mph17.7 kmh 29.81 in1009.5 mb 0.02 in0.5 mm 0.00 in0.0 mm 0.02 in0.5 mm
06:15 PM 49.6°F9.8°C 45.9°F7.7°C 87% 1.0 mph ESE1.6 kmh ESE 7.0 mph11.3 kmh 29.80 in1009.1 mb 0.03 in0.8 mm 0.04 in1.0 mm 0.03 in0.8 mm
06:30 PM 49.4°F9.7°C 46.3°F7.9°C 89% 6.0 mph N9.7 kmh N 7.0 mph11.3 kmh 29.79 in1008.8 mb 0.04 in1.0 mm 0.04 in1.0 mm 0.04 in1.0 mm
06:45 PM 49.1°F9.5°C 46.3°F7.9°C 90% 3.0 mph ENE4.8 kmh ENE 13.0 mph20.9 kmh 29.78 in1008.5 mb 0.03 in0.8 mm 0.00 in0.0 mm 0.04 in1.0 mm
07:00 PM 48.9°F9.4°C 46.1°F7.8°C 90% 5.0 mph NE8.0 kmh NE 13.0 mph20.9 kmh 29.77 in1008.1 mb 0.04 in1.0 mm 0.01 in0.3 mm 0.05 in1.3 mm
07:15 PM 48.8°F9.3°C 46.0°F7.8°C 90% 5.0 mph NE8.0 kmh NE 10.0 mph16.1 kmh 29.77 in1008.1 mb 0.02 in0.5 mm 0.00 in0.0 mm 0.05 in1.3 mm
07:30 PM 48.7°F9.3°C 45.9°F7.7°C 90% 3.0 mph SE4.8 kmh SE 11.0 mph17.7 kmh 29.78 in1008.5 mb 0.02 in0.5 mm 0.00 in0.0 mm 0.05 in1.3 mm
07:45 PM 48.4°F9.1°C 45.9°F7.7°C 91% Calm Calm 12.0 mph19.3 kmh 29.78 in1008.5 mb 0.02 in0.5 mm 0.00 in0.0 mm 0.05 in1.3 mm
08:00 PM 48.1°F8.9°C 45.9°F7.7°C 92% 5.0 mph NNE8.0 kmh NNE 12.0 mph19.3 kmh 29.78 in1008.5 mb 0.02 in0.5 mm 0.00 in0.0 mm 0.05 in1.3 mm
08:15 PM 47.9°F8.8°C 45.7°F7.6°C 92% 3.0 mph SE4.8 kmh SE 11.0 mph17.7 kmh 29.78 in1008.5 mb 0.02 in0.5 mm 0.00 in0.0 mm 0.05 in1.3 mm
08:30 PM 47.6°F8.7°C 45.7°F7.6°C 93% 3.0 mph ENE4.8 kmh ENE 14.0 mph22.5 kmh 29.78 in1008.5 mb 0.03 in0.8 mm 0.04 in1.0 mm 0.06 in1.5 mm
08:45 PM 47.5°F8.6°C 45.6°F7.6°C 93% 1.0 mph E1.6 kmh E 8.0 mph12.9 kmh 29.77 in1008.1 mb 0.02 in0.5 mm 0.00 in0.0 mm 0.06 in1.5 mm
09:00 PM 47.3°F8.5°C 45.4°F7.4°C 93% 7.0 mph ESE11.3 kmh ESE 11.0 mph17.7 kmh 29.78 in1008.5 mb 0.03 in0.8 mm 0.01 in0.3 mm 0.07 in1.8 mm
09:15 PM 47.1°F8.4°C 45.5°F7.5°C 94% 5.0 mph SE8.0 kmh SE 11.0 mph17.7 kmh 29.75 in1007.5 mb 0.03 in0.8 mm 0.00 in0.0 mm 0.07 in1.8 mm
09:30 PM 46.9°F8.3°C 45.3°F7.4°C 94% 2.0 mph ESE3.2 kmh ESE 16.0 mph25.7 kmh 29.74 in1007.1 mb 0.04 in1.0 mm 0.04 in1.0 mm 0.08 in2.0 mm
09:45 PM 46.8°F8.2°C 45.2°F7.3°C 94% 1.0 mph NE1.6 kmh NE 16.0 mph25.7 kmh 29.73 in1006.8 mb 0.04 in1.0 mm 0.00 in0.0 mm 0.08 in2.0 mm
10:00 PM 46.8°F8.2°C 45.5°F7.5°C 95% 2.0 mph N3.2 kmh N 16.0 mph25.7 kmh 29.71 in1006.1 mb 0.05 in1.3 mm 0.01 in0.3 mm 0.09 in2.3 mm
10:15 PM 46.7°F8.2°C 45.4°F7.4°C 95% 5.0 mph ESE8.0 kmh ESE 22.0 mph35.4 kmh 29.68 in1005.1 mb 0.04 in1.0 mm 0.00 in0.0 mm 0.09 in2.3 mm
10:30 PM 46.8°F8.2°C 45.5°F7.5°C 95% 3.0 mph NE4.8 kmh NE 22.0 mph35.4 kmh 29.66 in1004.4 mb 0.05 in1.3 mm 0.04 in1.0 mm 0.10 in2.5 mm
10:45 PM 46.9°F8.3°C 45.6°F7.6°C 95% 9.0 mph NE14.5 kmh NE 12.0 mph19.3 kmh 29.64 in1003.7 mb 0.04 in1.0 mm 0.00 in0.0 mm 0.10 in2.5 mm
11:00 PM 47.0°F8.3°C 45.7°F7.6°C 95% 1.0 mph E1.6 kmh E 15.0 mph24.1 kmh 29.66 in1004.4 mb 0.04 in1.0 mm 0.00 in0.0 mm 0.10 in2.5 mm
11:15 PM 47.1°F8.4°C 45.5°F7.5°C 94% 3.0 mph NNE4.8 kmh NNE 18.0 mph29.0 kmh 29.65 in1004.1 mb 0.03 in0.8 mm 0.00 in0.0 mm 0.10 in2.5 mm
11:30 PM 47.3°F8.5°C 45.7°F7.6°C 94% 4.0 mph NW6.4 kmh NW 18.0 mph29.0 kmh 29.66 in1004.4 mb 0.04 in1.0 mm 0.04 in1.0 mm 0.11 in2.8 mm
11:45 PM 47.6°F8.7°C 45.7°F7.6°C 93% 3.0 mph S4.8 kmh S 11.0 mph17.7 kmh 29.66 in1004.4 mb 0.03 in0.8 mm 0.00 in0.0 mm 0.11 in2.8 mm